sensor_id;sensor_type;location;lat;lon;timestamp;P1;durP1;ratioP1;P2;durP2;ratioP2
52322;SDS011;38263;52.920;6.238;2023-05-15T00:01:19;43.53;;;26.70;;
52322;SDS011;38263;52.920;6.238;2023-05-15T00:03:45;49.25;;;29.23;;
52322;SDS011;38263;52.920;6.238;2023-05-15T00:06:11;47.45;;;28.33;;
52322;SDS011;38263;52.920;6.238;2023-05-15T00:08:37;41.83;;;27.98;;
52322;SDS011;38263;52.920;6.238;2023-05-15T00:11:03;39.85;;;25.67;;
52322;SDS011;38263;52.920;6.238;2023-05-15T00:13:29;35.33;;;25.48;;
52322;SDS011;38263;52.920;6.238;2023-05-15T00:15:55;39.05;;;26.35;;
52322;SDS011;38263;52.920;6.238;2023-05-15T00:18:21;41.10;;;25.85;;
52322;SDS011;38263;52.920;6.238;2023-05-15T00:20:47;37.15;;;24.77;;
52322;SDS011;38263;52.920;6.238;2023-05-15T00:23:13;39.92;;;25.23;;
52322;SDS011;38263;52.920;6.238;2023-05-15T00:25:38;39.42;;;25.27;;
52322;SDS011;38263;52.920;6.238;2023-05-15T00:28:05;37.72;;;25.00;;
52322;SDS011;38263;52.920;6.238;2023-05-15T00:30:31;40.28;;;27.63;;
52322;SDS011;38263;52.920;6.238;2023-05-15T00:32:56;36.17;;;24.35;;
52322;SDS011;38263;52.920;6.238;2023-05-15T00:35:22;35.88;;;24.50;;
52322;SDS011;38263;52.920;6.238;2023-05-15T00:37:48;36.72;;;24.45;;
52322;SDS011;38263;52.920;6.238;2023-05-15T00:40:17;44.08;;;26.90;;
52322;SDS011;38263;52.920;6.238;2023-05-15T00:42:44;40.05;;;26.73;;
52322;SDS011;38263;52.920;6.238;2023-05-15T00:45:10;40.30;;;26.17;;
52322;SDS011;38263;52.920;6.238;2023-05-15T00:47:37;40.90;;;26.67;;
52322;SDS011;38263;52.920;6.238;2023-05-15T00:50:05;40.78;;;26.65;;
52322;SDS011;38263;52.920;6.238;2023-05-15T00:52:32;39.53;;;26.58;;
52322;SDS011;38263;52.920;6.238;2023-05-15T00:54:58;41.33;;;27.83;;
52322;SDS011;38263;52.920;6.238;2023-05-15T00:57:24;45.70;;;26.38;;
52322;SDS011;38263;52.920;6.238;2023-05-15T00:59:51;40.17;;;25.58;;
52322;SDS011;38263;52.920;6.238;2023-05-15T01:02:17;38.60;;;25.52;;
52322;SDS011;38263;52.920;6.238;2023-05-15T01:04:44;38.47;;;26.30;;
52322;SDS011;38263;52.920;6.238;2023-05-15T01:07:09;44.40;;;29.35;;
52322;SDS011;38263;52.920;6.238;2023-05-15T01:09:35;46.17;;;28.23;;
52322;SDS011;38263;52.920;6.238;2023-05-15T01:12:03;35.90;;;25.08;;
52322;SDS011;38263;52.920;6.238;2023-05-15T01:14:31;46.25;;;28.25;;
52322;SDS011;38263;52.920;6.238;2023-05-15T01:16:56;45.15;;;29.02;;
52322;SDS011;38263;52.920;6.238;2023-05-15T01:19:22;41.65;;;27.35;;
52322;SDS011;38263;52.920;6.238;2023-05-15T01:24:37;38.33;;;26.63;;
52322;SDS011;38263;52.920;6.238;2023-05-15T01:27:17;42.20;;;27.70;;
52322;SDS011;38263;52.920;6.238;2023-05-15T01:30:11;40.53;;;26.27;;
52322;SDS011;38263;52.920;6.238;2023-05-15T01:32:42;44.20;;;26.08;;
52322;SDS011;38263;52.920;6.238;2023-05-15T01:35:20;44.15;;;26.02;;
52322;SDS011;38263;52.920;6.238;2023-05-15T01:43:51;39.80;;;25.67;;
52322;SDS011;38263;52.920;6.238;2023-05-15T01:46:20;42.95;;;27.17;;
52322;SDS011;38263;52.920;6.238;2023-05-15T01:48:47;38.08;;;25.25;;
52322;SDS011;38263;52.920;6.238;2023-05-15T01:51:15;44.03;;;25.15;;
52322;SDS011;38263;52.920;6.238;2023-05-15T01:53:41;40.42;;;25.42;;
52322;SDS011;38263;52.920;6.238;2023-05-15T01:56:08;40.75;;;25.60;;
52322;SDS011;38263;52.920;6.238;2023-05-15T01:58:36;41.38;;;26.65;;
52322;SDS011;38263;52.920;6.238;2023-05-15T02:01:03;42.15;;;26.58;;
52322;SDS011;38263;52.920;6.238;2023-05-15T02:03:31;40.95;;;26.02;;
52322;SDS011;38263;52.920;6.238;2023-05-15T02:05:58;43.20;;;26.95;;
52322;SDS011;38263;52.920;6.238;2023-05-15T02:08:25;36.67;;;24.88;;
52322;SDS011;38263;52.920;6.238;2023-05-15T02:10:55;42.03;;;25.15;;
52322;SDS011;38263;52.920;6.238;2023-05-15T02:13:23;39.10;;;23.98;;
52322;SDS011;38263;52.920;6.238;2023-05-15T02:15:49;39.80;;;24.48;;
52322;SDS011;38263;52.920;6.238;2023-05-15T02:18:15;37.05;;;25.33;;
52322;SDS011;38263;52.920;6.238;2023-05-15T02:20:41;43.53;;;24.35;;
52322;SDS011;38263;52.920;6.238;2023-05-15T02:23:07;49.92;;;24.88;;
52322;SDS011;38263;52.920;6.238;2023-05-15T02:25:37;36.88;;;23.25;;
52322;SDS011;38263;52.920;6.238;2023-05-15T02:28:03;37.80;;;23.98;;
52322;SDS011;38263;52.920;6.238;2023-05-15T02:30:40;34.67;;;23.83;;
52322;SDS011;38263;52.920;6.238;2023-05-15T02:35:58;34.13;;;22.30;;
52322;SDS011;38263;52.920;6.238;2023-05-15T02:38:30;34.38;;;24.17;;
52322;SDS011;38263;52.920;6.238;2023-05-15T02:41:02;37.38;;;24.13;;
52322;SDS011;38263;52.920;6.238;2023-05-15T02:43:30;48.30;;;25.73;;
52322;SDS011;38263;52.920;6.238;2023-05-15T02:45:56;37.97;;;23.45;;
52322;SDS011;38263;52.920;6.238;2023-05-15T02:48:24;45.45;;;26.67;;
52322;SDS011;38263;52.920;6.238;2023-05-15T02:50:50;39.95;;;25.85;;
52322;SDS011;38263;52.920;6.238;2023-05-15T02:53:16;37.80;;;23.52;;
52322;SDS011;38263;52.920;6.238;2023-05-15T02:55:42;38.03;;;23.85;;
52322;SDS011;38263;52.920;6.238;2023-05-15T02:58:08;34.72;;;22.48;;
52322;SDS011;38263;52.920;6.238;2023-05-15T03:00:34;32.30;;;21.23;;
52322;SDS011;38263;52.920;6.238;2023-05-15T03:03:00;32.03;;;21.02;;
52322;SDS011;38263;52.920;6.238;2023-05-15T03:05:26;35.65;;;22.58;;
52322;SDS011;38263;52.920;6.238;2023-05-15T03:07:51;32.28;;;23.65;;
52322;SDS011;38263;52.920;6.238;2023-05-15T03:10:17;34.88;;;24.00;;
52322;SDS011;38263;52.920;6.238;2023-05-15T03:12:45;37.33;;;22.77;;
52322;SDS011;38263;52.920;6.238;2023-05-15T03:15:11;37.25;;;23.58;;
52322;SDS011;38263;52.920;6.238;2023-05-15T03:17:36;36.65;;;24.35;;
52322;SDS011;38263;52.920;6.238;2023-05-15T03:20:02;36.60;;;22.85;;
52322;SDS011;38263;52.920;6.238;2023-05-15T03:22:28;33.72;;;21.02;;
52322;SDS011;38263;52.920;6.238;2023-05-15T03:24:55;33.63;;;22.17;;
52322;SDS011;38263;52.920;6.238;2023-05-15T03:27:20;31.52;;;22.10;;
52322;SDS011;38263;52.920;6.238;2023-05-15T03:29:46;32.58;;;20.90;;
52322;SDS011;38263;52.920;6.238;2023-05-15T03:32:14;32.38;;;21.02;;
52322;SDS011;38263;52.920;6.238;2023-05-15T03:34:40;30.13;;;20.13;;
52322;SDS011;38263;52.920;6.238;2023-05-15T03:37:06;31.02;;;21.33;;
52322;SDS011;38263;52.920;6.238;2023-05-15T03:39:32;31.95;;;22.30;;
52322;SDS011;38263;52.920;6.238;2023-05-15T03:41:58;35.85;;;22.48;;
52322;SDS011;38263;52.920;6.238;2023-05-15T03:44:24;29.85;;;20.60;;
52322;SDS011;38263;52.920;6.238;2023-05-15T03:46:50;30.08;;;20.40;;
52322;SDS011;38263;52.920;6.238;2023-05-15T03:49:16;31.27;;;20.42;;
52322;SDS011;38263;52.920;6.238;2023-05-15T03:51:42;31.25;;;21.05;;
52322;SDS011;38263;52.920;6.238;2023-05-15T03:54:08;31.73;;;20.48;;
52322;SDS011;38263;52.920;6.238;2023-05-15T03:56:34;30.70;;;19.58;;
52322;SDS011;38263;52.920;6.238;2023-05-15T03:59:00;31.23;;;20.45;;
52322;SDS011;38263;52.920;6.238;2023-05-15T04:01:26;30.15;;;19.83;;
52322;SDS011;38263;52.920;6.238;2023-05-15T04:03:52;29.80;;;19.65;;
52322;SDS011;38263;52.920;6.238;2023-05-15T04:06:18;32.20;;;20.75;;
52322;SDS011;38263;52.920;6.238;2023-05-15T04:08:44;30.13;;;19.58;;
52322;SDS011;38263;52.920;6.238;2023-05-15T04:11:09;32.50;;;20.13;;
52322;SDS011;38263;52.920;6.238;2023-05-15T04:13:36;35.75;;;23.02;;
52322;SDS011;38263;52.920;6.238;2023-05-15T04:16:02;33.40;;;21.05;;
52322;SDS011;38263;52.920;6.238;2023-05-15T04:18:28;33.53;;;21.70;;
52322;SDS011;38263;52.920;6.238;2023-05-15T04:20:54;30.20;;;21.23;;
52322;SDS011;38263;52.920;6.238;2023-05-15T04:23:20;28.65;;;20.17;;
52322;SDS011;38263;52.920;6.238;2023-05-15T04:25:46;30.95;;;21.20;;
52322;SDS011;38263;52.920;6.238;2023-05-15T04:28:12;31.23;;;22.45;;
52322;SDS011;38263;52.920;6.238;2023-05-15T04:30:39;30.00;;;21.75;;
52322;SDS011;38263;52.920;6.238;2023-05-15T04:33:05;30.75;;;21.52;;
52322;SDS011;38263;52.920;6.238;2023-05-15T04:35:30;31.23;;;21.02;;
52322;SDS011;38263;52.920;6.238;2023-05-15T04:37:56;31.92;;;21.83;;
52322;SDS011;38263;52.920;6.238;2023-05-15T04:40:22;32.85;;;21.55;;
52322;SDS011;38263;52.920;6.238;2023-05-15T04:42:48;30.63;;;21.67;;
52322;SDS011;38263;52.920;6.238;2023-05-15T04:45:14;37.17;;;22.75;;
52322;SDS011;38263;52.920;6.238;2023-05-15T04:47:40;34.33;;;20.98;;
52322;SDS011;38263;52.920;6.238;2023-05-15T04:50:06;36.70;;;23.45;;
52322;SDS011;38263;52.920;6.238;2023-05-15T04:52:33;28.48;;;20.92;;
52322;SDS011;38263;52.920;6.238;2023-05-15T04:54:58;27.73;;;20.10;;
52322;SDS011;38263;52.920;6.238;2023-05-15T04:57:24;32.45;;;20.60;;
52322;SDS011;38263;52.920;6.238;2023-05-15T04:59:50;31.90;;;21.13;;
52322;SDS011;38263;52.920;6.238;2023-05-15T05:02:19;29.27;;;21.00;;
52322;SDS011;38263;52.920;6.238;2023-05-15T05:04:48;28.90;;;19.25;;
52322;SDS011;38263;52.920;6.238;2023-05-15T05:07:14;25.60;;;18.38;;
52322;SDS011;38263;52.920;6.238;2023-05-15T05:09:40;28.38;;;18.80;;
52322;SDS011;38263;52.920;6.238;2023-05-15T05:12:07;27.95;;;18.90;;
52322;SDS011;38263;52.920;6.238;2023-05-15T05:14:33;27.15;;;18.58;;
52322;SDS011;38263;52.920;6.238;2023-05-15T05:16:59;27.60;;;20.00;;
52322;SDS011;38263;52.920;6.238;2023-05-15T05:19:25;29.55;;;20.42;;
52322;SDS011;38263;52.920;6.238;2023-05-15T05:21:52;28.70;;;20.85;;
52322;SDS011;38263;52.920;6.238;2023-05-15T05:24:18;28.70;;;20.08;;
52322;SDS011;38263;52.920;6.238;2023-05-15T05:26:44;28.15;;;19.02;;
52322;SDS011;38263;52.920;6.238;2023-05-15T05:29:10;29.75;;;20.00;;
52322;SDS011;38263;52.920;6.238;2023-05-15T05:31:36;28.02;;;19.00;;
52322;SDS011;38263;52.920;6.238;2023-05-15T05:34:02;26.92;;;19.25;;
52322;SDS011;38263;52.920;6.238;2023-05-15T05:36:28;28.98;;;17.33;;
52322;SDS011;38263;52.920;6.238;2023-05-15T05:38:54;27.13;;;18.63;;
52322;SDS011;38263;52.920;6.238;2023-05-15T05:41:19;24.10;;;17.20;;
52322;SDS011;38263;52.920;6.238;2023-05-15T05:43:45;27.98;;;18.48;;
52322;SDS011;38263;52.920;6.238;2023-05-15T05:46:11;28.73;;;18.40;;
52322;SDS011;38263;52.920;6.238;2023-05-15T05:48:37;25.83;;;16.63;;
52322;SDS011;38263;52.920;6.238;2023-05-15T05:51:03;20.60;;;15.95;;
52322;SDS011;38263;52.920;6.238;2023-05-15T05:53:29;23.88;;;15.23;;
52322;SDS011;38263;52.920;6.238;2023-05-15T05:55:55;20.17;;;15.18;;
52322;SDS011;38263;52.920;6.238;2023-05-15T05:58:20;18.55;;;14.43;;
52322;SDS011;38263;52.920;6.238;2023-05-15T06:00:46;18.35;;;14.02;;
52322;SDS011;38263;52.920;6.238;2023-05-15T06:03:12;19.25;;;14.20;;
52322;SDS011;38263;52.920;6.238;2023-05-15T06:05:37;15.93;;;12.98;;
52322;SDS011;38263;52.920;6.238;2023-05-15T06:08:03;18.67;;;12.73;;
52322;SDS011;38263;52.920;6.238;2023-05-15T06:10:29;18.67;;;13.90;;
52322;SDS011;38263;52.920;6.238;2023-05-15T06:12:55;15.05;;;12.45;;
52322;SDS011;38263;52.920;6.238;2023-05-15T06:15:20;14.93;;;12.43;;
52322;SDS011;38263;52.920;6.238;2023-05-15T06:17:46;15.95;;;12.27;;
52322;SDS011;38263;52.920;6.238;2023-05-15T06:20:12;15.25;;;12.32;;
52322;SDS011;38263;52.920;6.238;2023-05-15T06:22:38;15.80;;;11.88;;
52322;SDS011;38263;52.920;6.238;2023-05-15T06:25:04;15.18;;;12.60;;
52322;SDS011;38263;52.920;6.238;2023-05-15T06:27:31;16.38;;;11.88;;
52322;SDS011;38263;52.920;6.238;2023-05-15T06:29:57;15.70;;;11.48;;
52322;SDS011;38263;52.920;6.238;2023-05-15T06:32:22;12.85;;;11.10;;
52322;SDS011;38263;52.920;6.238;2023-05-15T06:34:48;13.18;;;11.57;;
52322;SDS011;38263;52.920;6.238;2023-05-15T06:37:13;15.70;;;12.85;;
52322;SDS011;38263;52.920;6.238;2023-05-15T06:39:39;14.88;;;11.85;;
52322;SDS011;38263;52.920;6.238;2023-05-15T06:42:05;13.85;;;11.00;;
52322;SDS011;38263;52.920;6.238;2023-05-15T06:44:31;16.63;;;12.30;;
52322;SDS011;38263;52.920;6.238;2023-05-15T06:46:57;15.50;;;11.95;;
52322;SDS011;38263;52.920;6.238;2023-05-15T06:49:23;14.98;;;11.95;;
52322;SDS011;38263;52.920;6.238;2023-05-15T06:51:49;18.60;;;12.60;;
52322;SDS011;38263;52.920;6.238;2023-05-15T06:54:15;15.68;;;12.35;;
52322;SDS011;38263;52.920;6.238;2023-05-15T06:56:40;19.60;;;14.57;;
52322;SDS011;38263;52.920;6.238;2023-05-15T06:59:06;19.13;;;14.60;;
52322;SDS011;38263;52.920;6.238;2023-05-15T07:01:32;20.52;;;14.60;;
52322;SDS011;38263;52.920;6.238;2023-05-15T07:03:57;20.33;;;15.45;;
52322;SDS011;38263;52.920;6.238;2023-05-15T07:06:23;18.60;;;14.45;;
52322;SDS011;38263;52.920;6.238;2023-05-15T07:08:49;22.38;;;15.70;;
52322;SDS011;38263;52.920;6.238;2023-05-15T07:11:15;19.25;;;15.70;;
52322;SDS011;38263;52.920;6.238;2023-05-15T07:13:41;23.70;;;16.02;;
52322;SDS011;38263;52.920;6.238;2023-05-15T07:16:07;20.80;;;16.13;;
52322;SDS011;38263;52.920;6.238;2023-05-15T07:18:33;23.27;;;16.50;;
52322;SDS011;38263;52.920;6.238;2023-05-15T07:20:59;25.25;;;15.55;;
52322;SDS011;38263;52.920;6.238;2023-05-15T07:23:25;20.48;;;16.05;;
52322;SDS011;38263;52.920;6.238;2023-05-15T07:25:52;22.58;;;16.27;;
52322;SDS011;38263;52.920;6.238;2023-05-15T07:28:18;20.00;;;15.88;;
52322;SDS011;38263;52.920;6.238;2023-05-15T07:30:44;21.90;;;17.45;;
52322;SDS011;38263;52.920;6.238;2023-05-15T07:33:10;21.35;;;14.27;;
52322;SDS011;38263;52.920;6.238;2023-05-15T07:35:36;21.35;;;15.20;;
52322;SDS011;38263;52.920;6.238;2023-05-15T07:38:02;21.83;;;15.77;;
52322;SDS011;38263;52.920;6.238;2023-05-15T07:40:28;18.80;;;15.02;;
52322;SDS011;38263;52.920;6.238;2023-05-15T07:42:54;20.67;;;14.38;;
52322;SDS011;38263;52.920;6.238;2023-05-15T07:45:21;16.88;;;13.30;;
52322;SDS011;38263;52.920;6.238;2023-05-15T07:47:47;18.05;;;14.60;;
52322;SDS011;38263;52.920;6.238;2023-05-15T07:50:14;18.50;;;13.93;;
52322;SDS011;38263;52.920;6.238;2023-05-15T07:52:39;16.70;;;13.93;;
52322;SDS011;38263;52.920;6.238;2023-05-15T07:55:06;20.80;;;15.20;;
52322;SDS011;38263;52.920;6.238;2023-05-15T07:57:33;20.27;;;14.85;;
52322;SDS011;38263;52.920;6.238;2023-05-15T07:59:59;18.20;;;13.98;;
52322;SDS011;38263;52.920;6.238;2023-05-15T08:02:27;21.00;;;14.45;;
52322;SDS011;38263;52.920;6.238;2023-05-15T08:04:53;21.25;;;15.27;;
52322;SDS011;38263;52.920;6.238;2023-05-15T08:07:19;21.55;;;15.27;;
52322;SDS011;38263;52.920;6.238;2023-05-15T08:09:45;20.45;;;14.05;;
52322;SDS011;38263;52.920;6.238;2023-05-15T08:12:15;20.38;;;13.88;;
52322;SDS011;38263;52.920;6.238;2023-05-15T08:14:41;18.23;;;14.63;;
52322;SDS011;38263;52.920;6.238;2023-05-15T08:17:07;20.48;;;14.27;;
52322;SDS011;38263;52.920;6.238;2023-05-15T08:19:33;25.42;;;15.75;;
52322;SDS011;38263;52.920;6.238;2023-05-15T08:21:59;22.05;;;15.43;;
52322;SDS011;38263;52.920;6.238;2023-05-15T08:24:25;19.58;;;15.95;;
52322;SDS011;38263;52.920;6.238;2023-05-15T08:26:50;20.52;;;15.80;;
52322;SDS011;38263;52.920;6.238;2023-05-15T08:29:16;24.35;;;15.77;;
52322;SDS011;38263;52.920;6.238;2023-05-15T08:31:42;22.02;;;15.55;;
52322;SDS011;38263;52.920;6.238;2023-05-15T08:34:08;22.80;;;17.58;;
52322;SDS011;38263;52.920;6.238;2023-05-15T08:36:33;18.17;;;14.90;;
52322;SDS011;38263;52.920;6.238;2023-05-15T08:38:59;20.40;;;15.07;;
52322;SDS011;38263;52.920;6.238;2023-05-15T08:41:32;22.50;;;16.38;;
52322;SDS011;38263;52.920;6.238;2023-05-15T08:44:05;21.30;;;15.30;;
52322;SDS011;38263;52.920;6.238;2023-05-15T08:46:33;22.83;;;15.40;;
52322;SDS011;38263;52.920;6.238;2023-05-15T08:49:00;21.30;;;15.88;;
52322;SDS011;38263;52.920;6.238;2023-05-15T08:51:30;19.58;;;14.35;;
52322;SDS011;38263;52.920;6.238;2023-05-15T08:53:56;22.40;;;14.65;;
52322;SDS011;38263;52.920;6.238;2023-05-15T08:56:22;19.52;;;14.35;;
52322;SDS011;38263;52.920;6.238;2023-05-15T08:58:48;20.85;;;15.27;;
52322;SDS011;38263;52.920;6.238;2023-05-15T09:01:14;21.05;;;15.70;;
52322;SDS011;38263;52.920;6.238;2023-05-15T09:03:41;19.27;;;14.27;;
52322;SDS011;38263;52.920;6.238;2023-05-15T09:06:07;24.52;;;16.50;;
52322;SDS011;38263;52.920;6.238;2023-05-15T09:08:33;18.58;;;14.43;;
52322;SDS011;38263;52.920;6.238;2023-05-15T09:11:01;22.42;;;15.40;;
52322;SDS011;38263;52.920;6.238;2023-05-15T09:13:28;23.27;;;15.23;;
52322;SDS011;38263;52.920;6.238;2023-05-15T09:15:55;22.52;;;15.05;;
52322;SDS011;38263;52.920;6.238;2023-05-15T09:18:21;18.23;;;14.88;;
52322;SDS011;38263;52.920;6.238;2023-05-15T09:20:47;20.55;;;15.23;;
52322;SDS011;38263;52.920;6.238;2023-05-15T09:23:24;16.90;;;13.98;;
52322;SDS011;38263;52.920;6.238;2023-05-15T09:25:51;21.65;;;14.40;;
52322;SDS011;38263;52.920;6.238;2023-05-15T09:28:52;20.55;;;15.30;;
52322;SDS011;38263;52.920;6.238;2023-05-15T09:31:10;19.10;;;15.82;;
52322;SDS011;38263;52.920;6.238;2023-05-15T09:33:37;21.55;;;14.90;;
52322;SDS011;38263;52.920;6.238;2023-05-15T09:36:04;19.95;;;15.43;;
52322;SDS011;38263;52.920;6.238;2023-05-15T09:38:31;21.90;;;15.18;;
52322;SDS011;38263;52.920;6.238;2023-05-15T09:41:04;21.70;;;14.77;;
52322;SDS011;38263;52.920;6.238;2023-05-15T09:43:37;24.20;;;15.52;;
52322;SDS011;38263;52.920;6.238;2023-05-15T09:46:05;21.48;;;15.10;;
52322;SDS011;38263;52.920;6.238;2023-05-15T09:48:36;22.08;;;14.80;;
52322;SDS011;38263;52.920;6.238;2023-05-15T09:51:02;18.05;;;14.90;;
52322;SDS011;38263;52.920;6.238;2023-05-15T09:53:30;17.58;;;14.73;;
52322;SDS011;38263;52.920;6.238;2023-05-15T09:55:57;22.25;;;15.98;;
52322;SDS011;38263;52.920;6.238;2023-05-15T09:58:22;17.95;;;15.23;;
52322;SDS011;38263;52.920;6.238;2023-05-15T10:00:48;19.27;;;14.85;;
52322;SDS011;38263;52.920;6.238;2023-05-15T10:03:14;19.52;;;14.35;;
52322;SDS011;38263;52.920;6.238;2023-05-15T10:05:40;18.15;;;13.88;;
52322;SDS011;38263;52.920;6.238;2023-05-15T10:08:06;18.08;;;14.55;;
52322;SDS011;38263;52.920;6.238;2023-05-15T10:10:32;18.23;;;14.48;;
52322;SDS011;38263;52.920;6.238;2023-05-15T10:12:58;18.40;;;13.57;;
52322;SDS011;38263;52.920;6.238;2023-05-15T10:15:27;16.73;;;13.18;;
52322;SDS011;38263;52.920;6.238;2023-05-15T10:17:54;18.80;;;13.57;;
52322;SDS011;38263;52.920;6.238;2023-05-15T10:20:21;17.95;;;14.23;;
52322;SDS011;38263;52.920;6.238;2023-05-15T10:22:49;16.67;;;13.90;;
52322;SDS011;38263;52.920;6.238;2023-05-15T10:27:59;18.35;;;14.25;;
52322;SDS011;38263;52.920;6.238;2023-05-15T10:30:26;16.17;;;14.10;;
52322;SDS011;38263;52.920;6.238;2023-05-15T10:32:53;18.52;;;14.65;;
52322;SDS011;38263;52.920;6.238;2023-05-15T10:35:20;17.23;;;14.55;;
52322;SDS011;38263;52.920;6.238;2023-05-15T10:37:47;16.40;;;14.43;;
52322;SDS011;38263;52.920;6.238;2023-05-15T10:40:14;18.33;;;16.20;;
52322;SDS011;38263;52.920;6.238;2023-05-15T10:42:44;19.73;;;16.08;;
52322;SDS011;38263;52.920;6.238;2023-05-15T10:45:11;21.58;;;15.73;;
52322;SDS011;38263;52.920;6.238;2023-05-15T10:47:37;16.83;;;14.93;;
52322;SDS011;38263;52.920;6.238;2023-05-15T10:50:04;17.75;;;15.18;;
52322;SDS011;38263;52.920;6.238;2023-05-15T10:52:31;19.27;;;13.82;;
52322;SDS011;38263;52.920;6.238;2023-05-15T10:54:57;19.30;;;15.55;;
52322;SDS011;38263;52.920;6.238;2023-05-15T10:57:24;19.30;;;15.07;;
52322;SDS011;38263;52.920;6.238;2023-05-15T10:59:49;24.35;;;15.18;;
52322;SDS011;38263;52.920;6.238;2023-05-15T11:02:22;18.52;;;13.80;;
52322;SDS011;38263;52.920;6.238;2023-05-15T11:04:56;18.43;;;13.67;;
52322;SDS011;38263;52.920;6.238;2023-05-15T11:07:23;16.10;;;14.25;;
52322;SDS011;38263;52.920;6.238;2023-05-15T11:09:49;17.02;;;13.27;;
52322;SDS011;38263;52.920;6.238;2023-05-15T11:12:16;16.75;;;12.35;;
52322;SDS011;38263;52.920;6.238;2023-05-15T11:14:43;14.30;;;11.65;;
52322;SDS011;38263;52.920;6.238;2023-05-15T11:17:28;14.35;;;10.70;;
52322;SDS011;38263;52.920;6.238;2023-05-15T11:19:56;14.23;;;11.68;;
52322;SDS011;38263;52.920;6.238;2023-05-15T11:22:27;15.20;;;12.20;;
52322;SDS011;38263;52.920;6.238;2023-05-15T11:24:54;15.40;;;13.27;;
52322;SDS011;38263;52.920;6.238;2023-05-15T11:27:32;15.45;;;13.02;;
52322;SDS011;38263;52.920;6.238;2023-05-15T11:30:06;16.90;;;13.70;;
52322;SDS011;38263;52.920;6.238;2023-05-15T11:32:42;24.10;;;15.30;;
52322;SDS011;38263;52.920;6.238;2023-05-15T11:35:09;20.17;;;14.68;;
52322;SDS011;38263;52.920;6.238;2023-05-15T11:37:37;18.42;;;14.57;;
52322;SDS011;38263;52.920;6.238;2023-05-15T11:40:17;16.02;;;14.02;;
52322;SDS011;38263;52.920;6.238;2023-05-15T11:45:54;19.00;;;14.15;;
52322;SDS011;38263;52.920;6.238;2023-05-15T11:48:21;18.05;;;14.68;;
52322;SDS011;38263;52.920;6.238;2023-05-15T11:50:56;18.60;;;13.57;;
52322;SDS011;38263;52.920;6.238;2023-05-15T11:53:22;19.80;;;13.50;;
52322;SDS011;38263;52.920;6.238;2023-05-15T11:55:50;17.35;;;13.10;;
52322;SDS011;38263;52.920;6.238;2023-05-15T11:58:18;18.55;;;13.35;;
52322;SDS011;38263;52.920;6.238;2023-05-15T12:00:46;19.60;;;13.48;;
52322;SDS011;38263;52.920;6.238;2023-05-15T12:03:16;13.90;;;12.40;;
52322;SDS011;38263;52.920;6.238;2023-05-15T12:05:55;14.88;;;11.88;;
52322;SDS011;38263;52.920;6.238;2023-05-15T12:08:21;18.05;;;13.30;;
52322;SDS011;38263;52.920;6.238;2023-05-15T12:10:47;19.58;;;13.20;;
52322;SDS011;38263;52.920;6.238;2023-05-15T12:13:13;17.23;;;13.32;;
52322;SDS011;38263;52.920;6.238;2023-05-15T12:15:41;15.43;;;12.30;;
52322;SDS011;38263;52.920;6.238;2023-05-15T12:18:08;15.75;;;10.63;;
52322;SDS011;38263;52.920;6.238;2023-05-15T12:20:34;13.68;;;10.60;;
52322;SDS011;38263;52.920;6.238;2023-05-15T12:23:04;12.32;;;9.95;;
52322;SDS011;38263;52.920;6.238;2023-05-15T12:25:32;13.10;;;9.98;;
52322;SDS011;38263;52.920;6.238;2023-05-15T12:28:00;11.73;;;10.20;;
52322;SDS011;38263;52.920;6.238;2023-05-15T12:30:27;13.88;;;9.98;;
52322;SDS011;38263;52.920;6.238;2023-05-15T12:33:00;14.05;;;10.32;;
52322;SDS011;38263;52.920;6.238;2023-05-15T12:35:28;13.80;;;10.93;;
52322;SDS011;38263;52.920;6.238;2023-05-15T12:37:53;12.15;;;10.55;;
52322;SDS011;38263;52.920;6.238;2023-05-15T12:40:20;12.98;;;10.82;;
52322;SDS011;38263;52.920;6.238;2023-05-15T12:42:50;13.77;;;11.77;;
52322;SDS011;38263;52.920;6.238;2023-05-15T12:45:18;13.88;;;10.77;;
52322;SDS011;38263;52.920;6.238;2023-05-15T12:47:45;14.95;;;11.55;;
52322;SDS011;38263;52.920;6.238;2023-05-15T12:52:39;17.75;;;12.80;;
52322;SDS011;38263;52.920;6.238;2023-05-15T12:55:05;16.13;;;12.52;;
52322;SDS011;38263;52.920;6.238;2023-05-15T12:57:31;14.55;;;12.27;;
52322;SDS011;38263;52.920;6.238;2023-05-15T12:59:58;19.60;;;12.77;;
52322;SDS011;38263;52.920;6.238;2023-05-15T13:02:24;15.38;;;13.00;;
52322;SDS011;38263;52.920;6.238;2023-05-15T13:04:49;12.85;;;11.48;;
52322;SDS011;38263;52.920;6.238;2023-05-15T13:07:15;19.67;;;11.38;;
52322;SDS011;38263;52.920;6.238;2023-05-15T13:09:41;16.17;;;12.32;;
52322;SDS011;38263;52.920;6.238;2023-05-15T13:12:08;17.52;;;11.05;;
52322;SDS011;38263;52.920;6.238;2023-05-15T13:14:36;13.95;;;11.35;;
52322;SDS011;38263;52.920;6.238;2023-05-15T13:17:02;14.55;;;10.57;;
52322;SDS011;38263;52.920;6.238;2023-05-15T13:19:28;12.15;;;10.55;;
52322;SDS011;38263;52.920;6.238;2023-05-15T13:21:55;13.07;;;10.35;;
52322;SDS011;38263;52.920;6.238;2023-05-15T13:24:21;14.93;;;10.23;;
52322;SDS011;38263;52.920;6.238;2023-05-15T13:26:46;10.60;;;8.90;;
52322;SDS011;38263;52.920;6.238;2023-05-15T13:29:12;13.85;;;9.32;;
52322;SDS011;38263;52.920;6.238;2023-05-15T13:31:38;11.95;;;9.20;;
52322;SDS011;38263;52.920;6.238;2023-05-15T13:34:04;9.68;;;8.05;;
52322;SDS011;38263;52.920;6.238;2023-05-15T13:36:29;8.93;;;7.97;;
52322;SDS011;38263;52.920;6.238;2023-05-15T13:38:56;12.45;;;8.07;;
52322;SDS011;38263;52.920;6.238;2023-05-15T13:41:21;8.25;;;7.45;;
52322;SDS011;38263;52.920;6.238;2023-05-15T13:43:47;10.63;;;8.05;;
52322;SDS011;38263;52.920;6.238;2023-05-15T13:46:13;13.45;;;9.32;;
52322;SDS011;38263;52.920;6.238;2023-05-15T13:48:39;11.82;;;9.05;;
52322;SDS011;38263;52.920;6.238;2023-05-15T13:51:05;12.35;;;8.60;;
52322;SDS011;38263;52.920;6.238;2023-05-15T13:53:31;10.18;;;8.95;;
52322;SDS011;38263;52.920;6.238;2023-05-15T13:55:56;12.30;;;8.40;;
52322;SDS011;38263;52.920;6.238;2023-05-15T13:58:22;20.60;;;11.70;;
52322;SDS011;38263;52.920;6.238;2023-05-15T14:00:50;12.20;;;8.93;;
52322;SDS011;38263;52.920;6.238;2023-05-15T14:03:16;10.07;;;8.60;;
52322;SDS011;38263;52.920;6.238;2023-05-15T14:05:42;10.13;;;8.50;;
52322;SDS011;38263;52.920;6.238;2023-05-15T14:08:08;11.45;;;9.50;;
52322;SDS011;38263;52.920;6.238;2023-05-15T14:10:36;19.35;;;12.05;;
52322;SDS011;38263;52.920;6.238;2023-05-15T14:13:02;12.55;;;10.38;;
52322;SDS011;38263;52.920;6.238;2023-05-15T14:15:28;14.43;;;10.43;;
52322;SDS011;38263;52.920;6.238;2023-05-15T14:17:54;15.75;;;11.70;;
52322;SDS011;38263;52.920;6.238;2023-05-15T14:20:20;14.00;;;11.07;;
52322;SDS011;38263;52.920;6.238;2023-05-15T14:22:46;16.05;;;12.05;;
52322;SDS011;38263;52.920;6.238;2023-05-15T14:25:11;18.73;;;13.02;;
52322;SDS011;38263;52.920;6.238;2023-05-15T14:27:37;18.25;;;13.85;;
52322;SDS011;38263;52.920;6.238;2023-05-15T14:30:03;15.98;;;12.65;;
52322;SDS011;38263;52.920;6.238;2023-05-15T14:32:29;17.35;;;12.35;;
52322;SDS011;38263;52.920;6.238;2023-05-15T14:34:55;18.42;;;13.15;;
52322;SDS011;38263;52.920;6.238;2023-05-15T14:37:23;16.30;;;13.07;;
52322;SDS011;38263;52.920;6.238;2023-05-15T14:39:50;17.42;;;13.70;;
52322;SDS011;38263;52.920;6.238;2023-05-15T14:42:17;16.05;;;12.68;;